sensor_id;sensor_type;location;lat;lon;timestamp;temperature;humidity
15617;DHT22;7908;51.688;7.130;2023-04-09T00:01:07;7.80;99.90
15617;DHT22;7908;51.688;7.130;2023-04-09T00:03:37;7.70;99.90
15617;DHT22;7908;51.688;7.130;2023-04-09T00:06:06;7.70;99.90
15617;DHT22;7908;51.688;7.130;2023-04-09T00:08:37;7.60;99.90
15617;DHT22;7908;51.688;7.130;2023-04-09T00:11:05;7.60;99.90
15617;DHT22;7908;51.688;7.130;2023-04-09T00:13:34;7.50;99.90
15617;DHT22;7908;51.688;7.130;2023-04-09T00:16:06;7.50;99.90
15617;DHT22;7908;51.688;7.130;2023-04-09T00:18:35;7.40;99.90
15617;DHT22;7908;51.688;7.130;2023-04-09T00:21:04;7.40;99.90
15617;DHT22;7908;51.688;7.130;2023-04-09T00:23:36;7.30;99.90
15617;DHT22;7908;51.688;7.130;2023-04-09T00:26:04;7.30;99.90
15617;DHT22;7908;51.688;7.130;2023-04-09T00:28:33;7.30;99.90
15617;DHT22;7908;51.688;7.130;2023-04-09T00:31:02;7.20;99.90
15617;DHT22;7908;51.688;7.130;2023-04-09T00:33:31;7.20;99.90
15617;DHT22;7908;51.688;7.130;2023-04-09T00:35:59;7.10;99.90
15617;DHT22;7908;51.688;7.130;2023-04-09T00:38:28;7.10;99.90
15617;DHT22;7908;51.688;7.130;2023-04-09T00:40:59;7.00;99.90
15617;DHT22;7908;51.688;7.130;2023-04-09T00:43:28;6.90;99.90
15617;DHT22;7908;51.688;7.130;2023-04-09T00:45:57;6.90;99.90
15617;DHT22;7908;51.688;7.130;2023-04-09T00:48:27;6.80;99.90
15617;DHT22;7908;51.688;7.130;2023-04-09T00:50:55;6.70;99.90
15617;DHT22;7908;51.688;7.130;2023-04-09T00:53:24;6.60;99.90
15617;DHT22;7908;51.688;7.130;2023-04-09T00:55:54;6.60;99.90
15617;DHT22;7908;51.688;7.130;2023-04-09T00:58:24;6.60;99.90
15617;DHT22;7908;51.688;7.130;2023-04-09T01:00:53;6.60;99.90
15617;DHT22;7908;51.688;7.130;2023-04-09T01:03:22;6.50;99.90
15617;DHT22;7908;51.688;7.130;2023-04-09T01:05:59;6.40;99.90
15617;DHT22;7908;51.688;7.130;2023-04-09T01:08:36;6.40;99.90
15617;DHT22;7908;51.688;7.130;2023-04-09T01:11:12;6.30;99.90
15617;DHT22;7908;51.688;7.130;2023-04-09T01:13:54;6.20;99.90
15617;DHT22;7908;51.688;7.130;2023-04-09T01:16:28;6.20;99.90
15617;DHT22;7908;51.688;7.130;2023-04-09T01:19:00;6.10;99.90
15617;DHT22;7908;51.688;7.130;2023-04-09T01:21:31;6.10;99.90
15617;DHT22;7908;51.688;7.130;2023-04-09T01:24:17;6.00;99.90
15617;DHT22;7908;51.688;7.130;2023-04-09T01:26:54;6.00;99.90
15617;DHT22;7908;51.688;7.130;2023-04-09T01:29:29;5.90;99.90
15617;DHT22;7908;51.688;7.130;2023-04-09T01:31:59;5.70;99.90
15617;DHT22;7908;51.688;7.130;2023-04-09T01:34:30;5.60;99.90
15617;DHT22;7908;51.688;7.130;2023-04-09T01:37:01;5.60;99.90
15617;DHT22;7908;51.688;7.130;2023-04-09T01:39:31;5.50;99.90
15617;DHT22;7908;51.688;7.130;2023-04-09T01:42:00;5.50;99.90
15617;DHT22;7908;51.688;7.130;2023-04-09T01:44:32;5.50;99.90
15617;DHT22;7908;51.688;7.130;2023-04-09T01:47:00;5.50;99.90
15617;DHT22;7908;51.688;7.130;2023-04-09T01:49:30;5.50;99.90
15617;DHT22;7908;51.688;7.130;2023-04-09T01:51:59;5.50;99.90
15617;DHT22;7908;51.688;7.130;2023-04-09T01:54:28;5.50;99.90
15617;DHT22;7908;51.688;7.130;2023-04-09T01:56:57;5.40;99.90
15617;DHT22;7908;51.688;7.130;2023-04-09T01:59:25;5.40;99.90
15617;DHT22;7908;51.688;7.130;2023-04-09T02:02:00;5.40;99.90
15617;DHT22;7908;51.688;7.130;2023-04-09T02:04:32;5.40;99.90
15617;DHT22;7908;51.688;7.130;2023-04-09T02:07:05;5.40;99.90
15617;DHT22;7908;51.688;7.130;2023-04-09T02:09:36;5.40;99.90
15617;DHT22;7908;51.688;7.130;2023-04-09T02:12:09;5.40;99.90
15617;DHT22;7908;51.688;7.130;2023-04-09T02:14:40;5.40;99.90
15617;DHT22;7908;51.688;7.130;2023-04-09T02:17:11;5.30;99.90
15617;DHT22;7908;51.688;7.130;2023-04-09T02:19:41;5.20;99.90
15617;DHT22;7908;51.688;7.130;2023-04-09T02:22:11;5.10;99.90
15617;DHT22;7908;51.688;7.130;2023-04-09T02:24:40;5.00;99.90
15617;DHT22;7908;51.688;7.130;2023-04-09T02:27:08;4.90;99.90
15617;DHT22;7908;51.688;7.130;2023-04-09T02:29:38;4.90;99.90
15617;DHT22;7908;51.688;7.130;2023-04-09T02:32:06;4.90;99.90
15617;DHT22;7908;51.688;7.130;2023-04-09T02:34:36;4.80;99.90
15617;DHT22;7908;51.688;7.130;2023-04-09T02:37:05;4.80;99.90
15617;DHT22;7908;51.688;7.130;2023-04-09T02:39:34;4.70;99.90
15617;DHT22;7908;51.688;7.130;2023-04-09T02:42:03;4.70;99.90
15617;DHT22;7908;51.688;7.130;2023-04-09T02:44:34;4.70;99.90
15617;DHT22;7908;51.688;7.130;2023-04-09T02:47:02;4.60;99.90
15617;DHT22;7908;51.688;7.130;2023-04-09T02:49:31;4.50;99.90
15617;DHT22;7908;51.688;7.130;2023-04-09T02:52:02;4.40;99.90
15617;DHT22;7908;51.688;7.130;2023-04-09T02:54:30;4.40;99.90
15617;DHT22;7908;51.688;7.130;2023-04-09T02:56:59;4.40;99.90
15617;DHT22;7908;51.688;7.130;2023-04-09T02:59:27;4.30;99.90
15617;DHT22;7908;51.688;7.130;2023-04-09T03:01:56;4.30;99.90
15617;DHT22;7908;51.688;7.130;2023-04-09T03:04:25;4.30;99.90
15617;DHT22;7908;51.688;7.130;2023-04-09T03:06:53;4.20;99.90
15617;DHT22;7908;51.688;7.130;2023-04-09T03:09:23;4.20;99.90
15617;DHT22;7908;51.688;7.130;2023-04-09T03:11:52;4.20;99.90
15617;DHT22;7908;51.688;7.130;2023-04-09T03:14:22;4.20;99.90
15617;DHT22;7908;51.688;7.130;2023-04-09T03:16:51;4.10;99.90
15617;DHT22;7908;51.688;7.130;2023-04-09T03:19:19;4.10;99.90
15617;DHT22;7908;51.688;7.130;2023-04-09T03:21:48;4.10;99.90
15617;DHT22;7908;51.688;7.130;2023-04-09T03:24:17;4.00;99.90
15617;DHT22;7908;51.688;7.130;2023-04-09T03:26:47;4.00;99.90
15617;DHT22;7908;51.688;7.130;2023-04-09T03:29:16;4.00;99.90
15617;DHT22;7908;51.688;7.130;2023-04-09T03:31:44;3.90;99.90
15617;DHT22;7908;51.688;7.130;2023-04-09T03:34:13;3.90;99.90
15617;DHT22;7908;51.688;7.130;2023-04-09T03:36:42;3.80;99.90
15617;DHT22;7908;51.688;7.130;2023-04-09T03:39:10;3.80;99.90
15617;DHT22;7908;51.688;7.130;2023-04-09T03:41:39;3.80;99.90
15617;DHT22;7908;51.688;7.130;2023-04-09T03:44:09;3.70;99.90
15617;DHT22;7908;51.688;7.130;2023-04-09T03:46:38;3.70;99.90
15617;DHT22;7908;51.688;7.130;2023-04-09T03:49:07;3.70;99.90
15617;DHT22;7908;51.688;7.130;2023-04-09T03:51:35;3.70;99.90
15617;DHT22;7908;51.688;7.130;2023-04-09T03:54:04;3.60;99.90
15617;DHT22;7908;51.688;7.130;2023-04-09T03:56:32;3.60;99.90
15617;DHT22;7908;51.688;7.130;2023-04-09T03:59:01;3.60;99.90
15617;DHT22;7908;51.688;7.130;2023-04-09T04:01:31;3.60;99.90
15617;DHT22;7908;51.688;7.130;2023-04-09T04:04:01;3.50;99.90
15617;DHT22;7908;51.688;7.130;2023-04-09T04:06:32;3.50;99.90
15617;DHT22;7908;51.688;7.130;2023-04-09T04:09:01;3.50;99.90
15617;DHT22;7908;51.688;7.130;2023-04-09T04:11:29;3.50;99.90
15617;DHT22;7908;51.688;7.130;2023-04-09T04:13:58;3.40;99.90
15617;DHT22;7908;51.688;7.130;2023-04-09T04:16:27;3.30;99.90
15617;DHT22;7908;51.688;7.130;2023-04-09T04:18:57;3.20;99.90
15617;DHT22;7908;51.688;7.130;2023-04-09T04:21:25;3.10;99.90
15617;DHT22;7908;51.688;7.130;2023-04-09T04:23:54;3.00;99.90
15617;DHT22;7908;51.688;7.130;2023-04-09T04:26:23;3.00;99.90
15617;DHT22;7908;51.688;7.130;2023-04-09T04:28:51;2.80;99.90
15617;DHT22;7908;51.688;7.130;2023-04-09T04:31:20;2.80;99.90
15617;DHT22;7908;51.688;7.130;2023-04-09T04:33:49;2.80;99.90
15617;DHT22;7908;51.688;7.130;2023-04-09T04:36:19;2.80;99.90
15617;DHT22;7908;51.688;7.130;2023-04-09T04:38:47;2.70;99.90
15617;DHT22;7908;51.688;7.130;2023-04-09T04:41:16;2.70;99.90
15617;DHT22;7908;51.688;7.130;2023-04-09T04:43:46;2.60;99.90
15617;DHT22;7908;51.688;7.130;2023-04-09T04:46:15;2.60;99.90
15617;DHT22;7908;51.688;7.130;2023-04-09T04:48:43;2.60;99.90
15617;DHT22;7908;51.688;7.130;2023-04-09T04:51:12;2.70;99.90
15617;DHT22;7908;51.688;7.130;2023-04-09T04:53:42;2.70;99.90
15617;DHT22;7908;51.688;7.130;2023-04-09T04:56:12;2.70;99.90
15617;DHT22;7908;51.688;7.130;2023-04-09T04:58:41;2.70;99.90
15617;DHT22;7908;51.688;7.130;2023-04-09T05:01:10;2.60;99.90
15617;DHT22;7908;51.688;7.130;2023-04-09T05:03:38;2.60;99.90
15617;DHT22;7908;51.688;7.130;2023-04-09T05:06:07;2.60;99.90
15617;DHT22;7908;51.688;7.130;2023-04-09T05:08:36;2.60;99.90
15617;DHT22;7908;51.688;7.130;2023-04-09T05:11:10;2.60;99.90
15617;DHT22;7908;51.688;7.130;2023-04-09T05:13:39;2.60;99.90
15617;DHT22;7908;51.688;7.130;2023-04-09T05:16:07;2.60;99.90
15617;DHT22;7908;51.688;7.130;2023-04-09T05:18:36;2.60;99.90
15617;DHT22;7908;51.688;7.130;2023-04-09T05:21:05;2.50;99.90
15617;DHT22;7908;51.688;7.130;2023-04-09T05:23:33;2.50;99.90
15617;DHT22;7908;51.688;7.130;2023-04-09T05:26:02;2.50;99.90
15617;DHT22;7908;51.688;7.130;2023-04-09T05:28:33;2.50;99.90
15617;DHT22;7908;51.688;7.130;2023-04-09T05:31:01;2.60;99.90
15617;DHT22;7908;51.688;7.130;2023-04-09T05:33:30;2.60;99.90
15617;DHT22;7908;51.688;7.130;2023-04-09T05:36:04;2.60;99.90
15617;DHT22;7908;51.688;7.130;2023-04-09T05:38:33;2.60;99.90
15617;DHT22;7908;51.688;7.130;2023-04-09T05:41:02;2.70;99.90
15617;DHT22;7908;51.688;7.130;2023-04-09T05:43:32;2.80;99.90
15617;DHT22;7908;51.688;7.130;2023-04-09T05:46:00;2.80;99.90
15617;DHT22;7908;51.688;7.130;2023-04-09T05:48:29;2.80;99.90
15617;DHT22;7908;51.688;7.130;2023-04-09T05:50:58;2.80;99.90
15617;DHT22;7908;51.688;7.130;2023-04-09T05:53:27;2.90;99.90
15617;DHT22;7908;51.688;7.130;2023-04-09T05:55:55;2.90;99.90
15617;DHT22;7908;51.688;7.130;2023-04-09T05:58:24;3.00;99.90
15617;DHT22;7908;51.688;7.130;2023-04-09T06:00:54;3.00;99.90
15617;DHT22;7908;51.688;7.130;2023-04-09T06:03:23;3.10;99.90
15617;DHT22;7908;51.688;7.130;2023-04-09T06:05:52;3.20;99.90
15617;DHT22;7908;51.688;7.130;2023-04-09T06:08:20;3.30;99.90
15617;DHT22;7908;51.688;7.130;2023-04-09T06:10:49;3.40;99.90
15617;DHT22;7908;51.688;7.130;2023-04-09T06:13:17;3.50;99.90
15617;DHT22;7908;51.688;7.130;2023-04-09T06:15:47;3.60;99.90
15617;DHT22;7908;51.688;7.130;2023-04-09T06:18:17;3.80;99.90
15617;DHT22;7908;51.688;7.130;2023-04-09T06:20:46;3.90;99.90
15617;DHT22;7908;51.688;7.130;2023-04-09T06:23:14;4.00;99.90
15617;DHT22;7908;51.688;7.130;2023-04-09T06:25:43;4.10;99.90
15617;DHT22;7908;51.688;7.130;2023-04-09T06:28:12;4.30;99.90
15617;DHT22;7908;51.688;7.130;2023-04-09T06:30:40;4.40;99.90
15617;DHT22;7908;51.688;7.130;2023-04-09T06:33:09;4.50;99.90
15617;DHT22;7908;51.688;7.130;2023-04-09T06:35:39;4.60;99.90
15617;DHT22;7908;51.688;7.130;2023-04-09T06:38:07;4.70;99.90
15617;DHT22;7908;51.688;7.130;2023-04-09T06:40:37;4.90;99.90
15617;DHT22;7908;51.688;7.130;2023-04-09T06:43:06;5.00;99.90
15617;DHT22;7908;51.688;7.130;2023-04-09T06:45:35;5.20;99.90
15617;DHT22;7908;51.688;7.130;2023-04-09T06:48:07;5.30;99.90
15617;DHT22;7908;51.688;7.130;2023-04-09T06:50:36;5.50;99.90
15617;DHT22;7908;51.688;7.130;2023-04-09T06:53:06;5.60;99.90
15617;DHT22;7908;51.688;7.130;2023-04-09T06:55:35;5.70;99.90
15617;DHT22;7908;51.688;7.130;2023-04-09T06:58:04;5.80;99.90
15617;DHT22;7908;51.688;7.130;2023-04-09T07:00:33;5.90;99.90
15617;DHT22;7908;51.688;7.130;2023-04-09T07:03:01;6.00;99.90
15617;DHT22;7908;51.688;7.130;2023-04-09T07:05:31;6.10;99.90
15617;DHT22;7908;51.688;7.130;2023-04-09T07:07:59;6.10;99.90
15617;DHT22;7908;51.688;7.130;2023-04-09T07:10:29;6.20;99.90
15617;DHT22;7908;51.688;7.130;2023-04-09T07:12:58;6.30;99.90
15617;DHT22;7908;51.688;7.130;2023-04-09T07:15:27;6.40;99.90
15617;DHT22;7908;51.688;7.130;2023-04-09T07:17:55;6.50;99.90
15617;DHT22;7908;51.688;7.130;2023-04-09T07:20:24;6.60;99.90
15617;DHT22;7908;51.688;7.130;2023-04-09T07:22:53;6.80;99.90
15617;DHT22;7908;51.688;7.130;2023-04-09T07:25:22;6.90;99.90
15617;DHT22;7908;51.688;7.130;2023-04-09T07:27:52;7.00;99.90
15617;DHT22;7908;51.688;7.130;2023-04-09T07:30:21;7.00;99.90
15617;DHT22;7908;51.688;7.130;2023-04-09T07:32:50;7.10;99.90
15617;DHT22;7908;51.688;7.130;2023-04-09T07:35:19;7.20;99.90
15617;DHT22;7908;51.688;7.130;2023-04-09T07:37:48;7.30;99.90
15617;DHT22;7908;51.688;7.130;2023-04-09T07:40:16;7.30;99.90
15617;DHT22;7908;51.688;7.130;2023-04-09T07:42:46;7.40;99.90
15617;DHT22;7908;51.688;7.130;2023-04-09T07:45:17;7.50;99.90
15617;DHT22;7908;51.688;7.130;2023-04-09T07:47:46;7.60;99.90
15617;DHT22;7908;51.688;7.130;2023-04-09T07:50:15;7.70;99.90
15617;DHT22;7908;51.688;7.130;2023-04-09T07:52:43;7.80;99.90
15617;DHT22;7908;51.688;7.130;2023-04-09T07:55:12;7.90;99.90
15617;DHT22;7908;51.688;7.130;2023-04-09T07:57:42;8.00;99.90
15617;DHT22;7908;51.688;7.130;2023-04-09T08:00:12;8.10;99.90
15617;DHT22;7908;51.688;7.130;2023-04-09T08:02:42;8.30;99.90
15617;DHT22;7908;51.688;7.130;2023-04-09T08:05:11;8.50;99.90
15617;DHT22;7908;51.688;7.130;2023-04-09T08:07:40;8.70;99.90
15617;DHT22;7908;51.688;7.130;2023-04-09T08:10:09;9.00;99.90
15617;DHT22;7908;51.688;7.130;2023-04-09T08:12:41;9.20;99.90
15617;DHT22;7908;51.688;7.130;2023-04-09T08:15:10;9.20;99.90
15617;DHT22;7908;51.688;7.130;2023-04-09T08:17:39;9.20;99.90
15617;DHT22;7908;51.688;7.130;2023-04-09T08:20:10;9.30;99.90
15617;DHT22;7908;51.688;7.130;2023-04-09T08:22:39;9.40;99.90
15617;DHT22;7908;51.688;7.130;2023-04-09T08:25:08;9.40;99.90
15617;DHT22;7908;51.688;7.130;2023-04-09T08:27:37;9.40;99.90
15617;DHT22;7908;51.688;7.130;2023-04-09T08:30:07;9.50;99.90
15617;DHT22;7908;51.688;7.130;2023-04-09T08:32:36;9.50;99.90
15617;DHT22;7908;51.688;7.130;2023-04-09T08:35:06;9.60;99.90
15617;DHT22;7908;51.688;7.130;2023-04-09T08:37:36;9.70;99.90
15617;DHT22;7908;51.688;7.130;2023-04-09T08:40:07;9.80;99.90
15617;DHT22;7908;51.688;7.130;2023-04-09T08:42:36;9.90;99.90
15617;DHT22;7908;51.688;7.130;2023-04-09T08:45:08;9.90;99.90
15617;DHT22;7908;51.688;7.130;2023-04-09T08:47:38;10.10;99.90
15617;DHT22;7908;51.688;7.130;2023-04-09T08:50:09;10.20;99.90
15617;DHT22;7908;51.688;7.130;2023-04-09T08:52:39;10.30;99.90
15617;DHT22;7908;51.688;7.130;2023-04-09T08:55:10;10.40;99.90
15617;DHT22;7908;51.688;7.130;2023-04-09T08:57:40;10.40;99.90
15617;DHT22;7908;51.688;7.130;2023-04-09T09:00:09;10.60;99.90
15617;DHT22;7908;51.688;7.130;2023-04-09T09:02:38;10.70;99.90
15617;DHT22;7908;51.688;7.130;2023-04-09T09:05:35;10.80;99.90
15617;DHT22;7908;51.688;7.130;2023-04-09T09:08:06;10.80;99.90
15617;DHT22;7908;51.688;7.130;2023-04-09T09:10:40;10.90;99.90
15617;DHT22;7908;51.688;7.130;2023-04-09T09:13:17;10.90;99.90
15617;DHT22;7908;51.688;7.130;2023-04-09T09:15:47;11.00;99.90
15617;DHT22;7908;51.688;7.130;2023-04-09T09:18:20;11.00;99.90
15617;DHT22;7908;51.688;7.130;2023-04-09T09:21:10;11.10;99.90
15617;DHT22;7908;51.688;7.130;2023-04-09T09:23:40;11.20;99.90
15617;DHT22;7908;51.688;7.130;2023-04-09T09:26:13;11.30;99.90
15617;DHT22;7908;51.688;7.130;2023-04-09T09:28:42;11.40;99.90
15617;DHT22;7908;51.688;7.130;2023-04-09T09:31:12;11.40;99.90
15617;DHT22;7908;51.688;7.130;2023-04-09T09:33:41;11.30;99.90
15617;DHT22;7908;51.688;7.130;2023-04-09T09:36:10;11.40;99.90
15617;DHT22;7908;51.688;7.130;2023-04-09T09:38:53;11.30;99.90
15617;DHT22;7908;51.688;7.130;2023-04-09T09:41:24;11.40;99.90
15617;DHT22;7908;51.688;7.130;2023-04-09T09:43:53;11.60;99.90
15617;DHT22;7908;51.688;7.130;2023-04-09T09:46:24;11.90;99.90
15617;DHT22;7908;51.688;7.130;2023-04-09T09:48:55;12.10;99.90
15617;DHT22;7908;51.688;7.130;2023-04-09T09:51:26;12.20;99.90
15617;DHT22;7908;51.688;7.130;2023-04-09T09:53:58;12.20;99.90
15617;DHT22;7908;51.688;7.130;2023-04-09T09:56:30;12.30;99.90
15617;DHT22;7908;51.688;7.130;2023-04-09T09:59:05;12.50;99.90
15617;DHT22;7908;51.688;7.130;2023-04-09T10:01:35;12.60;99.90
15617;DHT22;7908;51.688;7.130;2023-04-09T10:04:06;12.60;99.90
15617;DHT22;7908;51.688;7.130;2023-04-09T10:06:42;12.60;99.90
15617;DHT22;7908;51.688;7.130;2023-04-09T10:09:13;12.60;99.90
15617;DHT22;7908;51.688;7.130;2023-04-09T10:11:42;12.70;99.90
15617;DHT22;7908;51.688;7.130;2023-04-09T10:14:15;12.70;99.90
15617;DHT22;7908;51.688;7.130;2023-04-09T10:16:45;12.70;99.90
15617;DHT22;7908;51.688;7.130;2023-04-09T10:19:15;12.70;99.90
15617;DHT22;7908;51.688;7.130;2023-04-09T10:21:50;12.80;99.90
15617;DHT22;7908;51.688;7.130;2023-04-09T10:24:22;12.80;99.90
15617;DHT22;7908;51.688;7.130;2023-04-09T10:26:53;12.90;99.90
15617;DHT22;7908;51.688;7.130;2023-04-09T10:29:27;12.90;99.90
15617;DHT22;7908;51.688;7.130;2023-04-09T10:32:04;12.90;99.90
15617;DHT22;7908;51.688;7.130;2023-04-09T10:34:36;13.00;99.90
15617;DHT22;7908;51.688;7.130;2023-04-09T10:37:07;13.10;99.90
15617;DHT22;7908;51.688;7.130;2023-04-09T10:39:43;13.20;99.90
15617;DHT22;7908;51.688;7.130;2023-04-09T10:42:13;13.20;99.90
15617;DHT22;7908;51.688;7.130;2023-04-09T10:44:43;13.20;99.90
15617;DHT22;7908;51.688;7.130;2023-04-09T10:47:31;13.10;99.90
15617;DHT22;7908;51.688;7.130;2023-04-09T10:50:14;13.10;99.90
15617;DHT22;7908;51.688;7.130;2023-04-09T10:52:46;13.30;99.90
15617;DHT22;7908;51.688;7.130;2023-04-09T10:55:47;13.30;99.90
15617;DHT22;7908;51.688;7.130;2023-04-09T10:58:16;13.30;99.90
15617;DHT22;7908;51.688;7.130;2023-04-09T11:00:47;13.30;99.90
15617;DHT22;7908;51.688;7.130;2023-04-09T11:03:22;13.30;99.90
15617;DHT22;7908;51.688;7.130;2023-04-09T11:05:58;13.30;99.90
15617;DHT22;7908;51.688;7.130;2023-04-09T11:08:30;13.40;99.90
15617;DHT22;7908;51.688;7.130;2023-04-09T11:11:01;13.50;99.90
15617;DHT22;7908;51.688;7.130;2023-04-09T11:13:34;13.70;99.90
15617;DHT22;7908;51.688;7.130;2023-04-09T11:16:04;13.70;99.90
15617;DHT22;7908;51.688;7.130;2023-04-09T11:18:33;13.70;99.90
15617;DHT22;7908;51.688;7.130;2023-04-09T11:21:03;13.80;99.90
15617;DHT22;7908;51.688;7.130;2023-04-09T11:23:34;13.80;99.90
15617;DHT22;7908;51.688;7.130;2023-04-09T11:26:05;13.80;99.90
15617;DHT22;7908;51.688;7.130;2023-04-09T11:28:34;13.80;99.90
15617;DHT22;7908;51.688;7.130;2023-04-09T11:31:04;13.80;99.90
15617;DHT22;7908;51.688;7.130;2023-04-09T11:33:33;13.70;99.90
15617;DHT22;7908;51.688;7.130;2023-04-09T11:36:04;13.70;99.90
15617;DHT22;7908;51.688;7.130;2023-04-09T11:38:35;13.70;99.90
15617;DHT22;7908;51.688;7.130;2023-04-09T11:41:09;13.70;99.90
15617;DHT22;7908;51.688;7.130;2023-04-09T11:43:39;13.70;99.90
15617;DHT22;7908;51.688;7.130;2023-04-09T11:46:09;13.80;99.90
15617;DHT22;7908;51.688;7.130;2023-04-09T11:48:41;13.90;99.90
15617;DHT22;7908;51.688;7.130;2023-04-09T11:51:11;13.70;99.90
15617;DHT22;7908;51.688;7.130;2023-04-09T11:53:40;13.70;99.90
15617;DHT22;7908;51.688;7.130;2023-04-09T11:56:11;13.80;99.90
15617;DHT22;7908;51.688;7.130;2023-04-09T11:58:44;14.00;99.90
15617;DHT22;7908;51.688;7.130;2023-04-09T12:01:20;14.10;99.90
15617;DHT22;7908;51.688;7.130;2023-04-09T12:03:51;14.00;99.90
15617;DHT22;7908;51.688;7.130;2023-04-09T12:06:23;13.90;99.90
15617;DHT22;7908;51.688;7.130;2023-04-09T12:08:52;13.70;99.90
15617;DHT22;7908;51.688;7.130;2023-04-09T12:11:27;13.70;99.90
15617;DHT22;7908;51.688;7.130;2023-04-09T12:14:10;13.70;99.90
15617;DHT22;7908;51.688;7.130;2023-04-09T12:16:41;13.80;99.90
15617;DHT22;7908;51.688;7.130;2023-04-09T12:19:12;13.80;99.90
15617;DHT22;7908;51.688;7.130;2023-04-09T12:21:45;13.90;99.90
15617;DHT22;7908;51.688;7.130;2023-04-09T12:24:18;14.00;99.90
15617;DHT22;7908;51.688;7.130;2023-04-09T12:26:50;14.10;99.90
15617;DHT22;7908;51.688;7.130;2023-04-09T12:29:23;14.40;99.90
15617;DHT22;7908;51.688;7.130;2023-04-09T12:31:53;14.50;99.90
15617;DHT22;7908;51.688;7.130;2023-04-09T12:34:22;14.50;99.90
15617;DHT22;7908;51.688;7.130;2023-04-09T12:36:53;14.50;99.90
15617;DHT22;7908;51.688;7.130;2023-04-09T12:39:30;14.40;99.90
15617;DHT22;7908;51.688;7.130;2023-04-09T12:42:04;14.20;99.90
15617;DHT22;7908;51.688;7.130;2023-04-09T12:44:35;14.10;99.90
15617;DHT22;7908;51.688;7.130;2023-04-09T12:47:06;14.10;99.90
15617;DHT22;7908;51.688;7.130;2023-04-09T12:49:36;14.00;99.90
15617;DHT22;7908;51.688;7.130;2023-04-09T12:52:08;14.10;99.90
15617;DHT22;7908;51.688;7.130;2023-04-09T12:54:38;14.10;99.90
15617;DHT22;7908;51.688;7.130;2023-04-09T12:57:11;14.20;99.90
15617;DHT22;7908;51.688;7.130;2023-04-09T12:59:43;14.10;99.90
15617;DHT22;7908;51.688;7.130;2023-04-09T13:02:19;14.10;99.90
15617;DHT22;7908;51.688;7.130;2023-04-09T13:04:52;14.20;99.90
15617;DHT22;7908;51.688;7.130;2023-04-09T13:07:21;14.30;99.90
15617;DHT22;7908;51.688;7.130;2023-04-09T13:09:52;14.50;99.90
15617;DHT22;7908;51.688;7.130;2023-04-09T13:12:23;14.70;99.90
15617;DHT22;7908;51.688;7.130;2023-04-09T13:14:53;14.80;99.90
15617;DHT22;7908;51.688;7.130;2023-04-09T13:17:23;14.80;99.90
15617;DHT22;7908;51.688;7.130;2023-04-09T13:19:54;14.80;99.90
15617;DHT22;7908;51.688;7.130;2023-04-09T13:22:23;14.80;99.90
15617;DHT22;7908;51.688;7.130;2023-04-09T13:24:56;14.70;99.90
15617;DHT22;7908;51.688;7.130;2023-04-09T13:27:27;14.60;99.90
15617;DHT22;7908;51.688;7.130;2023-04-09T13:29:56;14.40;99.90
15617;DHT22;7908;51.688;7.130;2023-04-09T13:32:25;14.30;99.90
15617;DHT22;7908;51.688;7.130;2023-04-09T13:34:56;14.20;99.90
15617;DHT22;7908;51.688;7.130;2023-04-09T13:37:25;14.20;99.90
15617;DHT22;7908;51.688;7.130;2023-04-09T13:39:54;14.20;99.90
15617;DHT22;7908;51.688;7.130;2023-04-09T13:42:29;14.20;99.90
15617;DHT22;7908;51.688;7.130;2023-04-09T13:44:59;14.20;99.90
15617;DHT22;7908;51.688;7.130;2023-04-09T13:47:28;14.10;99.90
15617;DHT22;7908;51.688;7.130;2023-04-09T13:49:57;14.20;99.90
15617;DHT22;7908;51.688;7.130;2023-04-09T13:52:28;14.10;99.90
15617;DHT22;7908;51.688;7.130;2023-04-09T13:54:57;14.20;99.90
15617;DHT22;7908;51.688;7.130;2023-04-09T13:57:27;14.10;99.90
15617;DHT22;7908;51.688;7.130;2023-04-09T13:59:56;14.20;99.90
15617;DHT22;7908;51.688;7.130;2023-04-09T14:02:28;14.20;99.90
15617;DHT22;7908;51.688;7.130;2023-04-09T14:04:57;14.20;99.90
15617;DHT22;7908;51.688;7.130;2023-04-09T14:07:26;14.30;99.90
15617;DHT22;7908;51.688;7.130;2023-04-09T14:09:55;14.40;99.90
15617;DHT22;7908;51.688;7.130;2023-04-09T14:12:24;14.40;99.90
15617;DHT22;7908;51.688;7.130;2023-04-09T14:14:54;14.60;99.90
15617;DHT22;7908;51.688;7.130;2023-04-09T14:17:23;14.70;99.90
15617;DHT22;7908;51.688;7.130;2023-04-09T14:19:52;14.90;99.90
15617;DHT22;7908;51.688;7.130;2023-04-09T14:22:21;15.10;99.70
15617;DHT22;7908;51.688;7.130;2023-04-09T14:24:50;15.10;99.90
15617;DHT22;7908;51.688;7.130;2023-04-09T14:27:18;15.20;99.70
15617;DHT22;7908;51.688;7.130;2023-04-09T14:29:47;15.30;99.90
15617;DHT22;7908;51.688;7.130;2023-04-09T14:32:18;15.40;99.00
15617;DHT22;7908;51.688;7.130;2023-04-09T14:34:47;15.40;98.90
15617;DHT22;7908;51.688;7.130;2023-04-09T14:37:16;15.50;99.70
15617;DHT22;7908;51.688;7.130;2023-04-09T14:39:45;15.60;98.70
15617;DHT22;7908;51.688;7.130;2023-04-09T14:42:14;15.70;98.60
15617;DHT22;7908;51.688;7.130;2023-04-09T14:44:44;15.70;98.20
15617;DHT22;7908;51.688;7.130;2023-04-09T14:47:13;15.70;98.50
15617;DHT22;7908;51.688;7.130;2023-04-09T14:49:43;15.70;98.70
15617;DHT22;7908;51.688;7.130;2023-04-09T14:52:12;15.70;98.40
15617;DHT22;7908;51.688;7.130;2023-04-09T14:54:41;15.70;98.00
15617;DHT22;7908;51.688;7.130;2023-04-09T14:57:10;15.80;98.90
15617;DHT22;7908;51.688;7.130;2023-04-09T14:59:39;15.80;97.40
15617;DHT22;7908;51.688;7.130;2023-04-09T15:02:08;15.70;97.90
15617;DHT22;7908;51.688;7.130;2023-04-09T15:04:37;15.60;97.60
15617;DHT22;7908;51.688;7.130;2023-04-09T15:07:08;15.60;97.90
15617;DHT22;7908;51.688;7.130;2023-04-09T15:09:38;15.50;97.10
15617;DHT22;7908;51.688;7.130;2023-04-09T15:12:08;15.50;98.10
15617;DHT22;7908;51.688;7.130;2023-04-09T15:14:39;15.50;98.10
15617;DHT22;7908;51.688;7.130;2023-04-09T15:17:14;15.50;98.50
15617;DHT22;7908;51.688;7.130;2023-04-09T15:19:43;15.60;98.20
15617;DHT22;7908;51.688;7.130;2023-04-09T15:22:13;15.60;98.00
15617;DHT22;7908;51.688;7.130;2023-04-09T15:24:43;15.60;97.70
15617;DHT22;7908;51.688;7.130;2023-04-09T15:27:13;15.70;98.20
15617;DHT22;7908;51.688;7.130;2023-04-09T15:29:42;15.70;97.70
15617;DHT22;7908;51.688;7.130;2023-04-09T15:32:14;15.70;97.60
15617;DHT22;7908;51.688;7.130;2023-04-09T15:34:43;15.70;97.60
15617;DHT22;7908;51.688;7.130;2023-04-09T15:37:13;15.80;97.60
15617;DHT22;7908;51.688;7.130;2023-04-09T15:39:42;15.80;97.50
15617;DHT22;7908;51.688;7.130;2023-04-09T15:42:10;15.70;96.70
15617;DHT22;7908;51.688;7.130;2023-04-09T15:44:40;15.50;96.00
15617;DHT22;7908;51.688;7.130;2023-04-09T15:47:09;15.40;97.20
15617;DHT22;7908;51.688;7.130;2023-04-09T15:49:38;15.30;95.80
15617;DHT22;7908;51.688;7.130;2023-04-09T15:52:07;15.20;97.10
15617;DHT22;7908;51.688;7.130;2023-04-09T15:54:38;15.10;97.60
15617;DHT22;7908;51.688;7.130;2023-04-09T15:57:07;15.10;97.10
15617;DHT22;7908;51.688;7.130;2023-04-09T15:59:36;15.10;97.90
15617;DHT22;7908;51.688;7.130;2023-04-09T16:02:05;15.10;98.10
15617;DHT22;7908;51.688;7.130;2023-04-09T16:04:34;15.10;97.70
15617;DHT22;7908;51.688;7.130;2023-04-09T16:07:05;15.10;97.80
15617;DHT22;7908;51.688;7.130;2023-04-09T16:09:35;15.00;97.70
15617;DHT22;7908;51.688;7.130;2023-04-09T16:12:06;15.00;96.60
15617;DHT22;7908;51.688;7.130;2023-04-09T16:14:35;14.90;97.20